< < Back
Terminal Aerodrome Forecast


Current Version              Previous Versions:   1  2  3  4  5  6  7  8  9  

Terminal Aerodrome Forecast

289
FTUS42 KCHS 312101 AAA
TAFCHS
TAF AMD
KCHS 312101Z 3121/0118 11011KT P6SM -SHRA SCT020 BKN035
     FM010000 VRB05KT P6SM SCT035 BKN080
     FM010800 VRB03KT 6SM BR SCT008 BKN015
     FM011500 23006KT P6SM SCT015 OVC050=

Latest METAR

331
SAUS80 KWBC 312300
MTRCHS
METAR KCHS 312256Z 06008KT 10SM FEW020 SCT030 SCT060 28/23 A2989 RMK AO2
RAE00 SLP120 P0000 T02780228


USA.gov is the U.S. government's official web portal to all federal, state and local government web resources and services.